Troicko-Pecherskoe, Russia
Current Conditions -  °F | °C
As of 1:00 AM on Friday 24 Oct 2014 (Local Time) from UUYY Reporting Station
Clear Clear  
Wind Chill: -4°   Ceiling: Unl
Heat Index: 10°   Visibility: 6mi
Dew Point:   Wind: 11mph
Humidity: 79%   Direction: 360°N
Pressure: 30.21"   Gusts: 20mph
Location:  62.7°N, 56.2°E
Report Text: UUYY 232200Z 36005G09MPS CAVOK M12/M15 Q1023 NOSIG 0182//49 RMK QFE758/1010
Loading
Personal Weather Stations






























Interactive Weather Map
Tropical Storm Tracking
New forecast layout! Learn more

10-Day Weather Forecast

Advertisements
Track Severe Weather on mobile